Time;durP1;ratioP1;P1;durP2;ratioP2;P2;SDS_P1;SDS_P2;PMS_P1;PMS_P2;Temp;Humidity;BMP_temperature;BMP_pressure;BME280_temperature;BME280_humidity;BME280_pressure;Samples;Min_cycle;Max_cycle;Signal;HPM_P1;HPM_P2
2023/10/30 00:01:05;;;;;;;28.90;10.20;;;;;;;15.25;56.25;97982.30;67916;1273;1016387;-68
2023/10/30 00:04:14;;;;;;;29.90;10.30;;;;;;;15.28;56.34;97985.42;67908;1273;1016426;-68
2023/10/30 00:07:17;;;;;;;29.70;10.30;;;;;;;15.31;56.29;97980.15;67969;1273;1016811;-68
2023/10/30 00:10:19;;;;;;;32.00;10.10;;;;;;;15.28;56.31;97977.40;67872;1273;1016304;-68
2023/10/30 00:13:22;;;;;;;26.90;9.20;;;;;;;15.25;56.46;97974.19;67937;1273;1016545;-67
2023/10/30 00:16:24;;;;;;;30.00;9.80;;;;;;;15.18;56.65;97972.23;67920;1273;1017309;-68
2023/10/30 00:19:26;;;;;;;26.90;8.60;;;;;;;15.13;56.80;97966.71;67893;1273;1016301;-68
2023/10/30 00:22:29;;;;;;;27.80;9.50;;;;;;;15.21;56.80;97962.91;67839;1273;1016415;-67
2023/10/30 00:25:31;;;;;;;29.40;9.30;;;;;;;15.18;56.73;97951.45;67902;1273;1016406;-68
2023/10/30 00:28:34;;;;;;;32.70;10.70;;;;;;;15.04;57.35;97947.43;67910;1273;1016136;-68
2023/10/30 00:31:37;;;;;;;31.20;9.90;;;;;;;15.04;57.09;97952.44;67885;1273;1016538;-67
2023/10/30 00:34:40;;;;;;;28.30;9.50;;;;;;;15.06;57.14;97948.54;67922;1273;1016047;-68
2023/10/30 00:37:43;;;;;;;;;;;;;;;15.03;57.20;97954.90;67922;1273;1018301;-67
2023/10/30 00:40:45;;;;;;;38.40;11.60;;;;;;;15.15;57.27;97967.23;67872;1273;1016396;-67
2023/10/30 00:43:47;;;;;;;31.40;10.60;;;;;;;15.22;57.09;97972.58;67956;1273;1016307;-67
2023/10/30 00:46:51;;;;;;;32.10;9.70;;;;;;;15.23;56.94;97970.08;67964;1273;1016335;-67
2023/10/30 00:49:54;;;;;;;29.10;8.00;;;;;;;15.19;56.90;97968.78;67971;1273;1016402;-68
2023/10/30 00:52:56;;;;;;;25.70;7.50;;;;;;;15.11;56.76;97968.14;67939;1273;1016394;-68
2023/10/30 00:55:58;;;;;;;23.90;7.50;;;;;;;15.06;56.80;97964.85;67897;1273;1016476;-67
2023/10/30 00:59:01;;;;;;;21.80;6.70;;;;;;;14.99;56.93;97966.62;67892;1273;1016428;-68
2023/10/30 01:02:03;;;;;;;27.70;9.90;;;;;;;15.07;56.90;97976.08;67923;1273;1016348;-68
2023/10/30 01:05:06;;;;;;;25.20;8.40;;;;;;;15.15;56.60;97965.83;67940;1273;1016462;-67
2023/10/30 01:08:08;;;;;;;64.90;21.40;;;;;;;15.18;56.21;97962.20;67886;1273;1016130;-66
2023/10/30 01:11:10;;;;;;;30.40;9.70;;;;;;;15.04;56.56;97957.66;67920;1273;1018265;-67
2023/10/30 01:14:13;;;;;;;35.20;11.30;;;;;;;15.01;56.71;97946.86;67880;1273;1016806;-67
2023/10/30 01:17:15;;;;;;;26.40;9.10;;;;;;;15.07;56.64;97951.39;67734;1273;1192106;-67
2023/10/30 01:20:18;;;;;;;26.20;7.80;;;;;;;15.09;56.64;97956.50;67890;1273;1016414;-67
2023/10/30 01:23:21;;;;;;;;;;;;;;;15.20;56.54;97966.95;67959;1273;1016207;-68
2023/10/30 01:26:23;;;;;;;24.30;8.80;;;;;;;15.12;56.38;97968.00;67872;1273;1016283;-67
2023/10/30 01:29:26;;;;;;;26.40;8.50;;;;;;;15.05;56.43;97963.94;67950;1273;1016219;-68
2023/10/30 01:32:28;;;;;;;25.20;8.00;;;;;;;15.03;56.26;97958.77;67913;1273;1016109;-68
2023/10/30 01:35:30;;;;;;;27.70;8.30;;;;;;;15.05;56.36;97954.95;67934;1273;1015810;-67
2023/10/30 01:38:33;;;;;;;30.90;9.60;;;;;;;15.08;56.25;97958.37;67894;1273;1016441;-67
2023/10/30 01:41:35;;;;;;;31.20;10.70;;;;;;;14.99;56.32;97963.95;67915;1273;1016315;-67
2023/10/30 01:44:38;;;;;;;30.30;10.90;;;;;;;14.99;56.21;97969.00;67898;1273;1016191;-68
2023/10/30 01:47:40;;;;;;;61.80;27.30;;;;;;;15.01;56.16;97959.73;67904;1273;1016173;-68
2023/10/30 01:50:42;;;;;;;60.40;27.20;;;;;;;15.07;55.99;97958.92;67907;1273;1016875;-67
2023/10/30 01:53:45;;;;;;;53.90;19.00;;;;;;;15.08;55.75;97954.27;67914;1273;1016153;-67
2023/10/30 01:56:47;;;;;;;28.10;8.40;;;;;;;15.08;55.84;97959.45;67894;1273;1016431;-68
2023/10/30 01:59:49;;;;;;;29.40;10.00;;;;;;;14.94;56.18;97957.17;67881;1273;1016930;-68
2023/10/30 02:02:52;;;;;;;58.70;18.60;;;;;;;14.85;56.40;97957.27;67928;1273;1016956;-68
2023/10/30 02:05:54;;;;;;;61.00;20.40;;;;;;;14.89;56.58;97954.86;67904;1273;1016300;-67
2023/10/30 02:08:57;;;;;;;38.70;12.40;;;;;;;14.80;56.52;97961.07;67944;1273;1016198;-68
2023/10/30 02:11:59;;;;;;;32.10;11.00;;;;;;;14.88;56.53;97963.70;67901;1273;1016424;-67
2023/10/30 02:15:03;;;;;;;41.30;14.30;;;;;;;14.94;56.29;97944.47;67889;1273;1016435;-68
2023/10/30 02:18:05;;;;;;;40.30;14.30;;;;;;;14.92;56.32;97927.30;67913;1273;1016339;-67
2023/10/30 02:21:08;;;;;;;37.10;12.70;;;;;;;14.97;56.26;97934.88;67893;1273;1016425;-68
2023/10/30 02:24:11;;;;;;;30.80;10.50;;;;;;;15.06;56.00;97933.52;67927;1273;1016671;-68
2023/10/30 02:27:13;;;;;;;29.30;10.00;;;;;;;14.92;56.59;97942.17;67875;1273;1016568;-68
2023/10/30 02:30:16;;;;;;;29.80;9.50;;;;;;;15.11;56.36;97947.34;67900;1273;1016513;-68
2023/10/30 02:33:18;;;;;;;;;;;;;;;15.12;56.18;97952.13;67924;1273;1016508;-68
2023/10/30 02:36:21;;;;;;;34.00;11.20;;;;;;;15.13;56.21;97960.05;67937;1273;1016440;-67
2023/10/30 02:39:23;;;;;;;33.60;11.40;;;;;;;15.08;56.10;97966.46;67915;1273;1016454;-67
2023/10/30 02:42:25;;;;;;;25.90;8.00;;;;;;;15.08;55.88;97966.98;67862;1273;1018437;-67
2023/10/30 02:45:28;;;;;;;22.00;7.00;;;;;;;15.03;55.93;97976.09;67887;1273;1016500;-68
2023/10/30 02:48:30;;;;;;;23.10;6.70;;;;;;;14.98;55.92;97981.08;67939;1273;1016211;-67
2023/10/30 02:51:33;;;;;;;23.40;6.80;;;;;;;14.82;55.70;97982.92;67946;1273;1016430;-67
2023/10/30 02:54:35;;;;;;;23.50;7.70;;;;;;;14.68;56.05;97984.91;67922;1273;1018517;-68
2023/10/30 02:57:37;;;;;;;131.20;39.90;;;;;;;14.80;55.89;97986.44;67877;1273;1016810;-68
2023/10/30 03:00:40;;;;;;;60.90;19.40;;;;;;;14.80;55.66;97988.85;67877;1273;1016293;-68
2023/10/30 03:03:42;;;;;;;36.90;12.00;;;;;;;14.64;55.50;97995.67;67893;1273;1016180;-68
2023/10/30 03:06:47;;;;;;;57.90;17.60;;;;;;;14.56;55.08;97992.62;67953;1273;1016370;-67
2023/10/30 03:09:49;;;;;;;68.50;21.80;;;;;;;14.55;55.68;97995.14;67888;1273;1016519;-67
2023/10/30 03:12:52;;;;;;;37.80;12.10;;;;;;;14.53;55.52;97999.79;67887;1273;1016286;-68
2023/10/30 03:15:54;;;;;;;147.20;46.30;;;;;;;14.51;55.22;97995.23;67915;1273;1016204;-67
2023/10/30 03:18:56;;;;;;;42.00;13.60;;;;;;;14.54;55.56;97998.09;67923;1273;1016460;-68
2023/10/30 03:21:59;;;;;;;39.90;13.00;;;;;;;14.54;55.63;98018.52;67964;1273;1016476;-68
2023/10/30 03:25:01;;;;;;;25.00;7.10;;;;;;;14.42;55.28;98018.02;67913;1273;1016654;-67
2023/10/30 03:28:04;;;;;;;22.90;6.30;;;;;;;14.01;55.76;98017.21;67889;1273;1016404;-68
2023/10/30 03:31:06;;;;;;;20.50;6.10;;;;;;;13.82;55.93;98013.61;67845;1273;1016522;-68
2023/10/30 03:34:08;;;;;;;26.30;6.80;;;;;;;13.92;56.39;98019.43;67910;1273;1016441;-68
2023/10/30 03:37:11;;;;;;;21.40;6.60;;;;;;;13.97;56.55;98020.52;67897;1273;1016467;-68
2023/10/30 03:40:13;;;;;;;22.90;6.60;;;;;;;14.02;56.45;98013.08;67949;1273;1016457;-68
2023/10/30 03:43:16;;;;;;;20.20;6.10;;;;;;;14.09;56.34;98012.34;67922;1273;1016405;-67
2023/10/30 03:46:18;;;;;;;20.80;6.30;;;;;;;14.15;56.28;98015.45;67899;1273;1019447;-67
2023/10/30 03:49:21;;;;;;;20.80;6.00;;;;;;;14.18;55.87;98026.23;67931;1273;1016501;-67
2023/10/30 03:52:23;;;;;;;25.10;7.40;;;;;;;14.13;56.16;98031.45;67933;1273;1016805;-67
2023/10/30 03:55:26;;;;;;;24.40;6.60;;;;;;;14.26;55.95;98032.41;67890;1273;1016837;-67
2023/10/30 03:58:28;;;;;;;21.30;6.90;;;;;;;14.27;55.97;98027.73;67880;1273;1016460;-66
2023/10/30 04:01:30;;;;;;;24.70;6.80;;;;;;;14.48;55.69;98034.46;67901;1273;1016556;-66
2023/10/30 04:04:33;;;;;;;45.80;13.60;;;;;;;14.53;55.31;98033.31;67927;1273;1016515;-68
2023/10/30 04:07:35;;;;;;;45.30;14.10;;;;;;;14.64;55.11;98034.00;67892;1273;1016386;-68
2023/10/30 04:10:37;;;;;;;43.80;14.00;;;;;;;14.65;55.53;98030.91;67921;1273;1016428;-68
2023/10/30 04:13:40;;;;;;;56.60;18.60;;;;;;;14.76;55.50;98032.01;67882;1273;1016002;-68
2023/10/30 04:16:42;;;;;;;31.30;9.90;;;;;;;14.65;55.79;98027.39;67859;1273;1016487;-68
2023/10/30 04:19:45;;;;;;;40.90;11.70;;;;;;;14.69;56.22;98030.92;67901;1273;1016426;-67
2023/10/30 04:22:49;;;;;;;31.10;8.80;;;;;;;14.69;56.23;98031.56;67918;1273;1016416;-68
2023/10/30 04:25:52;;;;;;;24.10;7.40;;;;;;;14.66;56.39;98040.47;67912;1273;1016669;-67
2023/10/30 04:28:54;;;;;;;23.50;7.20;;;;;;;14.55;56.75;98045.28;67926;1273;1016406;-68
2023/10/30 04:31:56;;;;;;;32.00;10.20;;;;;;;14.51;56.54;98047.59;67870;1273;1016368;-67
2023/10/30 04:34:59;;;;;;;24.30;7.20;;;;;;;14.52;56.97;98049.41;67899;1273;1016269;-66
2023/10/30 04:38:01;;;;;;;44.10;13.40;;;;;;;14.68;56.48;98041.17;67912;1273;1016354;-67
2023/10/30 04:41:04;;;;;;;94.40;28.40;;;;;;;14.71;56.47;98037.58;67932;1273;1016440;-68
2023/10/30 04:44:06;;;;;;;39.60;12.30;;;;;;;14.75;56.64;98027.77;67872;1273;1016636;-67
2023/10/30 04:47:09;;;;;;;28.00;9.00;;;;;;;14.78;56.84;98026.03;67902;1273;1016780;-68
2023/10/30 04:50:11;;;;;;;25.90;8.20;;;;;;;14.81;56.84;98025.55;67896;1273;1016410;-68
2023/10/30 04:53:13;;;;;;;25.20;7.90;;;;;;;14.83;56.84;98023.15;67917;1273;1015900;-67
2023/10/30 04:56:16;;;;;;;24.30;7.40;;;;;;;14.94;56.60;98020.19;67896;1273;1016460;-67
2023/10/30 04:59:18;;;;;;;25.50;7.10;;;;;;;14.93;56.64;98022.73;67898;1273;1016422;-68
2023/10/30 05:02:21;;;;;;;22.10;6.80;;;;;;;15.00;56.71;98022.98;67859;1273;1016474;-65
2023/10/30 05:05:23;;;;;;;26.50;8.00;;;;;;;15.02;56.76;98019.67;67895;1273;1016059;-67
2023/10/30 05:08:26;;;;;;;;;;;;;;;15.06;56.73;98013.96;67909;1273;1016430;-68
2023/10/30 05:11:28;;;;;;;33.80;7.70;;;;;;;15.05;56.74;98013.86;67885;1273;1016086;-68
2023/10/30 05:14:31;;;;;;;23.90;7.70;;;;;;;15.11;56.83;98015.14;67894;1273;1019511;-68
2023/10/30 05:17:33;;;;;;;23.80;6.80;;;;;;;15.29;56.27;98012.45;67908;1273;1016438;-68
2023/10/30 05:20:35;;;;;;;29.20;9.10;;;;;;;15.30;56.15;98017.95;67937;1273;1016553;-67
2023/10/30 05:23:38;;;;;;;28.50;8.50;;;;;;;15.28;56.08;98015.67;67934;1273;1016220;-68
2023/10/30 05:26:40;;;;;;;26.50;8.20;;;;;;;15.23;56.22;98025.25;67899;1273;1016418;-68
2023/10/30 05:29:42;;;;;;;25.70;7.60;;;;;;;15.29;56.28;98027.35;67884;1273;1016046;-69
2023/10/30 05:32:45;;;;;;;28.50;8.70;;;;;;;15.42;56.21;98026.67;67856;1273;1016213;-68
2023/10/30 05:35:47;;;;;;;26.80;9.00;;;;;;;15.36;56.23;98019.02;67929;1273;1016435;-68
2023/10/30 05:38:50;;;;;;;23.70;7.90;;;;;;;15.32;56.48;98016.02;67932;1273;1017277;-67
2023/10/30 05:41:52;;;;;;;25.40;7.10;;;;;;;15.35;56.56;98023.77;67908;1273;1016476;-68
2023/10/30 05:44:55;;;;;;;21.20;6.20;;;;;;;15.43;56.63;98034.17;67874;1273;1016485;-67
2023/10/30 05:47:57;;;;;;;23.10;6.70;;;;;;;15.55;56.59;98040.66;67900;1273;1016236;-67
2023/10/30 05:51:00;;;;;;;29.90;8.10;;;;;;;15.54;56.72;98048.77;67954;1273;1016402;-67
2023/10/30 05:54:03;;;;;;;;;;;;;;;15.66;56.14;98055.77;67889;1273;1016119;-69
2023/10/30 05:57:05;;;;;;;25.30;7.90;;;;;;;15.74;55.88;98053.66;67814;1273;1015948;-67
2023/10/30 06:00:07;;;;;;;24.90;7.90;;;;;;;15.80;55.84;98053.25;67865;1256;1016347;-68
2023/10/30 06:03:13;;;;;;;;;;;;;;;15.91;55.83;98062.96;67897;1273;1016363;-66
2023/10/30 06:06:16;;;;;;;21.00;6.70;;;;;;;16.15;55.25;98062.46;67919;1273;1016439;-67
2023/10/30 06:09:19;;;;;;;;;;;;;;;16.23;54.94;98067.91;67885;1273;1016359;-68
2023/10/30 06:12:21;;;;;;;18.80;6.30;;;;;;;16.13;55.22;98074.10;67901;1273;1016240;-67
2023/10/30 06:15:24;;;;;;;20.20;6.20;;;;;;;16.27;55.01;98074.40;67885;1273;1016451;-66
2023/10/30 06:18:26;;;;;;;20.80;6.00;;;;;;;16.35;55.06;98074.02;67933;1273;1015961;-67
2023/10/30 06:21:29;;;;;;;20.10;6.60;;;;;;;16.51;55.06;98077.54;67925;1273;1016282;-67
2023/10/30 06:24:32;;;;;;;21.40;6.10;;;;;;;16.64;55.21;98089.17;67875;1273;1016335;-62
2023/10/30 06:27:34;;;;;;;21.80;6.30;;;;;;;16.77;55.05;98099.02;67928;1273;1016248;-67
2023/10/30 06:30:39;;;;;;;20.70;5.50;;;;;;;16.92;54.92;98111.73;67897;1273;1016403;-68
2023/10/30 06:33:41;;;;;;;20.30;5.60;;;;;;;17.03;54.67;98112.35;67869;1273;1016389;-67
2023/10/30 06:36:45;;;;;;;22.00;6.20;;;;;;;16.98;54.77;98108.66;67979;1273;1016463;-67
2023/10/30 06:39:48;;;;;;;22.10;5.70;;;;;;;16.96;55.15;98107.41;67873;1273;1016060;-67
2023/10/30 06:42:50;;;;;;;20.90;5.40;;;;;;;16.88;56.06;98113.67;67944;1273;1017296;-67
2023/10/30 06:45:52;;;;;;;18.60;6.10;;;;;;;17.14;55.93;98117.28;67929;1273;1016940;-66
2023/10/30 06:48:55;;;;;;;25.10;6.60;;;;;;;17.65;55.25;98110.47;67880;1273;1019079;-67
2023/10/30 06:51:57;;;;;;;22.20;6.50;;;;;;;17.84;54.99;98112.05;67898;1273;1016477;-67
2023/10/30 06:55:00;;;;;;;20.40;6.20;;;;;;;18.01;54.80;98111.99;67888;1273;1016126;-67
2023/10/30 06:58:02;;;;;;;22.50;6.10;;;;;;;17.98;54.79;98112.76;67949;1273;1016167;-67
2023/10/30 07:01:05;;;;;;;22.10;6.30;;;;;;;17.91;55.15;98111.60;67947;1273;1016195;-68
2023/10/30 07:04:07;;;;;;;19.60;5.90;;;;;;;17.99;55.29;98118.89;67839;1273;1016770;-68
2023/10/30 07:07:10;;;;;;;19.00;5.60;;;;;;;18.29;54.86;98130.80;67857;1273;1016431;-68
2023/10/30 07:10:13;;;;;;;19.80;5.70;;;;;;;18.33;54.98;98135.55;67891;1251;1016496;-68
2023/10/30 07:13:15;;;;;;;18.40;5.80;;;;;;;18.60;54.76;98137.90;67867;1273;1016423;-68
2023/10/30 07:16:19;;;;;;;17.00;5.40;;;;;;;18.83;54.55;98130.57;67889;1273;1016420;-68
2023/10/30 07:19:23;;;;;;;21.90;6.00;;;;;;;19.05;54.31;98133.35;67891;1273;1016445;-66
2023/10/30 07:22:26;;;;;;;19.90;5.70;;;;;;;19.10;53.82;98127.98;67869;1273;1018086;-68
2023/10/30 07:25:28;;;;;;;19.50;5.10;;;;;;;18.85;54.38;98128.70;67916;1273;1016326;-68
2023/10/30 07:28:31;;;;;;;19.70;5.70;;;;;;;18.92;54.46;98132.35;67889;1273;1016368;-67
2023/10/30 07:31:33;;;;;;;25.30;6.10;;;;;;;19.27;54.20;98133.83;67843;1273;1017022;-67
2023/10/30 07:34:36;;;;;;;19.30;5.90;;;;;;;19.56;54.04;98129.09;67890;1273;1018042;-66
2023/10/30 07:37:38;;;;;;;16.80;5.70;;;;;;;19.76;53.99;98133.33;67894;1273;1016608;-67
2023/10/30 07:40:41;;;;;;;17.60;5.10;;;;;;;20.11;53.41;98134.30;67903;1273;1016189;-67
2023/10/30 07:43:43;;;;;;;17.70;5.70;;;;;;;20.39;52.89;98125.23;67943;1273;1015956;-67
2023/10/30 07:46:46;;;;;;;;;;;;;;;20.75;52.38;98131.53;67877;1273;1016680;-67
2023/10/30 07:49:48;;;;;;;18.00;6.10;;;;;;;20.75;52.92;98145.36;67878;1273;1016426;-67
2023/10/30 07:52:51;;;;;;;21.30;5.30;;;;;;;20.73;53.76;98141.70;67921;1273;1016377;-67
2023/10/30 07:55:53;;;;;;;;;;;;;;;20.91;53.42;98140.61;67876;1273;1016408;-67
2023/10/30 07:58:56;;;;;;;17.40;5.10;;;;;;;20.82;53.45;98135.92;67882;1273;1016701;-67
2023/10/30 08:01:58;;;;;;;19.50;5.70;;;;;;;21.11;53.78;98132.77;67877;1273;1018419;-66
2023/10/30 08:05:01;;;;;;;19.10;5.50;;;;;;;21.46;53.45;98136.91;67905;1273;1016083;-67
2023/10/30 08:08:03;;;;;;;21.30;6.80;;;;;;;21.65;53.82;98136.73;67921;1273;1016311;-67
2023/10/30 08:11:05;;;;;;;21.80;7.40;;;;;;;21.92;53.80;98130.77;67883;1273;1016376;-67
2023/10/30 08:14:08;;;;;;;25.20;7.70;;;;;;;22.41;53.28;98130.63;67829;1273;1016349;-67
2023/10/30 08:17:10;;;;;;;22.00;6.20;;;;;;;22.70;52.63;98131.55;67849;1273;1016378;-66
2023/10/30 08:20:13;;;;;;;23.80;7.00;;;;;;;22.96;52.21;98125.33;67915;1273;1016261;-66
2023/10/30 08:23:16;;;;;;;22.80;6.80;;;;;;;23.25;52.35;98127.58;67896;1273;1017176;-67
2023/10/30 08:26:18;;;;;;;18.80;4.80;;;;;;;23.55;51.96;98129.64;67891;1273;1016614;-67
2023/10/30 08:29:21;;;;;;;21.50;5.50;;;;;;;23.62;51.54;98129.33;67941;1273;1016195;-66
2023/10/30 08:32:23;;;;;;;;;;;;;;;23.55;51.89;98133.37;67915;1273;1016471;-66
2023/10/30 08:35:26;;;;;;;14.40;3.70;;;;;;;23.38;51.91;98137.64;67869;1273;1016396;-67
2023/10/30 08:38:29;;;;;;;17.90;4.10;;;;;;;23.32;51.72;98138.45;67905;1273;1016416;-66
2023/10/30 08:41:33;;;;;;;17.10;3.50;;;;;;;23.31;52.20;98136.19;67916;1273;1016067;-67
2023/10/30 08:44:35;;;;;;;16.30;3.50;;;;;;;23.47;51.55;98136.44;67929;1273;1016957;-66
2023/10/30 08:47:38;;;;;;;15.80;3.10;;;;;;;23.64;51.27;98135.38;67889;1273;1016191;-66
2023/10/30 08:50:41;;;;;;;12.00;3.40;;;;;;;23.94;50.88;98136.60;67857;1273;1017065;-67
2023/10/30 08:53:44;;;;;;;12.40;3.00;;;;;;;24.18;50.92;98141.20;67891;1273;1016849;-67
2023/10/30 08:56:46;;;;;;;16.10;3.20;;;;;;;24.20;49.46;98144.47;67865;1273;1018974;-66
2023/10/30 08:59:50;;;;;;;9.60;2.10;;;;;;;24.34;49.57;98145.66;67876;1273;1016394;-65
2023/10/30 09:02:53;;;;;;;15.70;2.80;;;;;;;24.08;49.81;98150.08;67871;1273;1016327;-67
2023/10/30 09:05:55;;;;;;;14.50;2.80;;;;;;;24.13;49.14;98154.16;67857;1273;1016465;-67
2023/10/30 09:08:57;;;;;;;9.80;2.50;;;;;;;24.13;49.30;98146.05;67913;1273;1016200;-67
2023/10/30 09:12:00;;;;;;;;;;;;;;;24.12;48.79;98147.11;67925;1272;1016399;-67
2023/10/30 09:15:02;;;;;;;10.30;2.90;;;;;;;24.20;48.43;98148.05;67867;1273;1018614;-67
2023/10/30 09:18:05;;;;;;;;;;;;;;;24.41;49.26;98145.22;67890;1273;1016262;-67
2023/10/30 09:21:08;;;;;;;12.10;2.80;;;;;;;24.77;47.88;98144.83;67913;1273;1016368;-65
2023/10/30 09:24:10;;;;;;;13.30;3.30;;;;;;;24.72;48.12;98143.89;67912;1273;1016187;-67
2023/10/30 09:27:12;;;;;;;;;;;;;;;25.20;47.93;98139.18;67879;1273;1016392;-67
2023/10/30 09:30:16;;;;;;;12.40;2.90;;;;;;;25.37;47.98;98139.33;67891;1251;1016356;-66
2023/10/30 09:33:18;;;;;;;13.40;3.10;;;;;;;25.76;47.87;98135.86;67932;1273;1016350;-65
2023/10/30 09:36:20;;;;;;;;;;;;;;;25.86;46.52;98133.21;67877;1273;1016422;-67
2023/10/30 09:39:23;;;;;;;16.60;3.60;;;;;;;25.98;46.63;98133.79;67875;1273;1016409;-67
2023/10/30 09:42:25;;;;;;;14.00;3.70;;;;;;;25.87;45.40;98135.86;67874;1273;1016464;-67
2023/10/30 09:45:28;;;;;;;14.30;3.70;;;;;;;25.78;44.26;98137.80;67933;1273;1016435;-66
2023/10/30 09:48:31;;;;;;;11.40;2.70;;;;;;;25.46;44.94;98136.14;67928;1273;1016439;-67
2023/10/30 09:51:34;;;;;;;14.10;2.50;;;;;;;25.60;44.79;98138.43;67883;1273;1016419;-67
2023/10/30 09:54:36;;;;;;;14.80;2.60;;;;;;;25.66;44.47;98127.91;67947;1272;1016040;-66
2023/10/30 09:57:38;;;;;;;13.50;2.60;;;;;;;25.65;44.29;98132.86;67888;1273;1016459;-67
2023/10/30 10:00:41;;;;;;;;;;;;;;;25.75;43.88;98133.55;67857;1273;1016435;-67
2023/10/30 10:03:43;;;;;;;10.90;2.60;;;;;;;25.71;43.49;98131.58;67883;1273;1018433;-67
2023/10/30 10:06:45;;;;;;;;;;;;;;;25.70;43.38;98124.73;67897;1273;1016669;-63
2023/10/30 10:09:48;;;;;;;9.10;2.40;;;;;;;25.69;43.92;98128.92;67906;1250;1017397;-66
2023/10/30 10:12:51;;;;;;;;;;;;;;;25.64;43.27;98134.11;67916;1273;1017590;-66
2023/10/30 10:15:53;;;;;;;12.60;2.60;;;;;;;25.53;43.45;98129.77;67863;1273;1016426;-66
2023/10/30 10:18:56;;;;;;;13.30;2.60;;;;;;;25.55;43.98;98134.19;67907;1273;1016224;-65
2023/10/30 10:21:58;;;;;;;11.60;2.90;;;;;;;25.56;44.03;98139.47;67920;1273;1016480;-67
2023/10/30 10:25:01;;;;;;;;;;;;;;;25.51;43.91;98139.55;67928;1273;1016239;-67
2023/10/30 10:28:03;;;;;;;;;;;;;;;25.39;43.66;98142.41;67891;1273;1016442;-66
2023/10/30 10:31:06;;;;;;;13.50;3.10;;;;;;;25.46;44.59;98142.95;67882;1273;1016425;-66
2023/10/30 10:34:08;;;;;;;;;;;;;;;25.58;45.31;98152.52;67898;1273;1016459;-65
2023/10/30 10:37:10;;;;;;;12.40;3.30;;;;;;;25.68;45.06;98148.89;67922;1273;1016405;-67
2023/10/30 10:40:13;;;;;;;;;;;;;;;25.86;45.20;98153.32;67902;1273;1016054;-66
2023/10/30 10:43:15;;;;;;;14.90;3.50;;;;;;;25.92;45.02;98147.63;67871;1273;1016208;-67
2023/10/30 10:46:17;;;;;;;;;;;;;;;25.89;45.18;98143.20;67887;1273;1018965;-66
2023/10/30 10:49:20;;;;;;;18.10;3.50;;;;;;;25.86;45.42;98144.58;67870;1273;1016090;-64
2023/10/30 10:52:22;;;;;;;16.40;3.60;;;;;;;25.86;44.98;98148.88;67887;1273;1016434;-67
2023/10/30 10:55:25;;;;;;;23.50;4.50;;;;;;;25.78;44.71;98148.84;67893;1273;1016195;-66
2023/10/30 10:58:27;;;;;;;;;;;;;;;25.68;44.68;98143.73;67903;1273;1016352;-67
2023/10/30 11:01:32;;;;;;;15.90;4.00;;;;;;;25.80;44.69;98136.15;67867;1273;1019733;-67
2023/10/30 11:04:35;;;;;;;13.90;3.90;;;;;;;25.95;44.54;98136.92;67881;1273;1016273;-67
2023/10/30 11:07:37;;;;;;;;;;;;;;;26.12;44.73;98132.60;67971;1273;1016759;-67
2023/10/30 11:10:40;;;;;;;;;;;;;;;26.09;44.78;98126.87;67891;1273;1016276;-67
2023/10/30 11:13:42;;;;;;;;;;;;;;;26.09;45.02;98120.09;68014;1273;1016421;-67
2023/10/30 11:16:45;;;;;;;13.60;3.40;;;;;;;26.11;44.71;98122.77;67908;1273;1016411;-67
2023/10/30 11:19:47;;;;;;;;;;;;;;;26.13;44.72;98120.87;67906;1273;1016224;-67
2023/10/30 11:22:49;;;;;;;15.40;3.30;;;;;;;26.12;44.56;98115.66;67879;1273;1016461;-65
2023/10/30 11:25:54;;;;;;;18.50;3.50;;;;;;;26.10;44.41;98113.67;67876;1273;1015787;-67
2023/10/30 11:28:57;;;;;;;16.80;3.80;;;;;;;26.12;44.59;98118.32;67906;1273;1016601;-67
2023/10/30 11:32:00;;;;;;;19.70;4.00;;;;;;;26.36;44.59;98110.83;67942;1273;1016123;-67
2023/10/30 11:35:03;;;;;;;15.50;3.50;;;;;;;26.53;44.01;98102.59;67951;1273;1016339;-67
2023/10/30 11:38:05;;;;;;;15.70;3.80;;;;;;;26.40;43.33;98104.93;67904;1273;1016068;-67
2023/10/30 11:41:08;;;;;;;13.40;3.50;;;;;;;26.55;43.53;98107.89;67864;1273;1016413;-67
2023/10/30 11:44:10;;;;;;;17.80;4.70;;;;;;;26.72;43.04;98107.55;67859;1273;1016371;-67
2023/10/30 11:47:13;;;;;;;18.60;3.70;;;;;;;26.88;42.99;98102.65;67928;1273;1016310;-67
2023/10/30 11:50:15;;;;;;;15.30;3.50;;;;;;;26.80;42.59;98100.89;67993;1273;1016499;-67
2023/10/30 11:53:19;;;;;;;14.40;3.40;;;;;;;26.61;42.73;98100.80;67863;1273;1016508;-67
2023/10/30 11:56:21;;;;;;;19.30;4.40;;;;;;;26.45;42.99;98095.11;67874;1273;1016441;-65
2023/10/30 11:59:24;;;;;;;16.70;4.00;;;;;;;26.44;42.77;98094.00;67916;1273;1016477;-65
2023/10/30 12:02:26;;;;;;;18.50;3.80;;;;;;;26.55;42.99;98095.15;67859;1273;1017088;-66
2023/10/30 12:05:28;;;;;;;21.30;4.40;;;;;;;26.66;42.90;98096.80;67872;1273;1016938;-67
2023/10/30 12:08:31;;;;;;;18.00;3.50;;;;;;;26.78;42.80;98099.52;67905;1273;1016364;-67
2023/10/30 12:11:33;;;;;;;19.40;4.10;;;;;;;26.95;42.83;98099.09;67914;1273;1016272;-67
2023/10/30 12:14:35;;;;;;;17.60;3.60;;;;;;;26.91;42.66;98092.52;67957;1273;1016470;-67
2023/10/30 12:17:38;;;;;;;17.30;3.30;;;;;;;26.90;42.17;98088.15;67887;1272;1015948;-67
2023/10/30 12:20:40;;;;;;;15.40;3.50;;;;;;;27.11;42.26;98092.67;67864;1273;1017994;-67
2023/10/30 12:23:43;;;;;;;16.60;3.50;;;;;;;27.40;41.42;98091.65;67889;1273;1016080;-67
2023/10/30 12:26:46;;;;;;;17.60;3.70;;;;;;;27.74;40.91;98083.96;67916;1273;1016397;-67
2023/10/30 12:29:53;;;;;;;15.30;3.70;;;;;;;27.73;40.23;98085.77;67856;1273;1018627;-67
2023/10/30 12:32:57;;;;;;;14.90;3.30;;;;;;;27.70;40.40;98078.41;67906;1273;1016374;-66
2023/10/30 12:35:59;;;;;;;18.20;3.70;;;;;;;27.61;40.86;98077.84;67960;1273;1016370;-67
2023/10/30 12:39:02;;;;;;;16.50;3.50;;;;;;;27.69;41.15;98082.41;67892;1273;1017666;-67
2023/10/30 12:42:04;;;;;;;20.70;3.70;;;;;;;27.60;41.29;98081.61;67873;1273;1016364;-65
2023/10/30 12:45:07;;;;;;;16.10;3.00;;;;;;;27.57;40.95;98090.46;67906;1273;1016301;-66
2023/10/30 12:48:09;;;;;;;15.30;3.30;;;;;;;27.68;40.68;98085.02;67909;1273;1016580;-66
2023/10/30 12:51:12;;;;;;;13.20;3.40;;;;;;;27.47;40.74;98081.95;67887;1272;1016045;-67
2023/10/30 12:54:14;;;;;;;19.80;4.30;;;;;;;27.32;41.22;98083.39;67869;1273;1016499;-65
2023/10/30 12:57:17;;;;;;;14.00;3.70;;;;;;;27.09;40.87;98079.95;67890;1273;1016524;-66
2023/10/30 13:00:19;;;;;;;17.00;3.90;;;;;;;26.95;41.67;98080.67;67919;1273;1016225;-67
2023/10/30 13:03:22;;;;;;;13.60;3.40;;;;;;;26.99;41.60;98083.62;67891;1273;1016260;-66
2023/10/30 13:06:24;;;;;;;20.60;4.10;;;;;;;27.00;41.41;98080.80;67904;1273;1016465;-67
2023/10/30 13:09:26;;;;;;;14.70;3.30;;;;;;;26.94;41.28;98081.38;67891;1273;1016259;-66
2023/10/30 13:12:30;;;;;;;18.00;4.00;;;;;;;26.95;41.71;98088.95;67865;1273;1016539;-66
2023/10/30 13:15:32;;;;;;;16.00;3.90;;;;;;;27.16;41.17;98086.61;67921;1273;1015920;-65
2023/10/30 13:18:36;;;;;;;17.40;4.00;;;;;;;27.29;41.27;98083.57;67703;1273;1017822;-67
2023/10/30 13:21:39;;;;;;;16.60;4.20;;;;;;;27.51;41.09;98078.11;67896;1273;1016158;-67
2023/10/30 13:24:42;;;;;;;16.50;3.90;;;;;;;27.75;40.48;98068.44;67905;1273;1016494;-67
2023/10/30 13:27:44;;;;;;;17.90;3.90;;;;;;;27.70;40.55;98059.64;67896;1273;1016493;-67
2023/10/30 13:30:47;;;;;;;14.90;3.30;;;;;;;27.65;40.48;98059.78;67892;1273;1015724;-67
2023/10/30 13:33:50;;;;;;;13.90;3.40;;;;;;;27.70;40.47;98065.11;67918;1273;1016413;-67
2023/10/30 13:36:52;;;;;;;13.90;3.50;;;;;;;27.57;40.21;98066.65;67897;1273;1016100;-67
2023/10/30 13:39:55;;;;;;;15.10;3.30;;;;;;;27.55;40.44;98076.03;67859;1257;1016457;-64
2023/10/30 13:43:00;;;;;;;17.90;3.80;;;;;;;27.45;40.54;98071.61;67925;1273;1016344;-66
2023/10/30 13:46:02;;;;;;;19.30;3.90;;;;;;;27.24;40.78;98076.02;67901;1273;1016472;-67
2023/10/30 13:49:05;;;;;;;17.50;4.10;;;;;;;27.05;41.32;98075.42;67888;1273;1016690;-66
2023/10/30 13:52:07;;;;;;;20.20;4.60;;;;;;;27.07;41.19;98076.81;67912;1273;1016467;-67
2023/10/30 13:55:10;;;;;;;17.90;4.90;;;;;;;26.79;41.57;98080.10;67927;1273;1016452;-67